Greenback, TN (37742)

5:01 PM EST on December 26, 2014 (GMT -0500)
Greenback | Change Station
CLOSE
Current Station
Personal Weather Station
Location: Maryville, TN
Elevation: 1020 ft
Nearby Weather Stations

Elev 1020 ft 35.62 °N, 84.13 °W | Updated 2 minutes ago

Mostly Cloudy
Mostly Cloudy
48.2 °F
Feels Like 48 °F
N
3.1
Wind Variable Wind from North
Gusts 5.4 mph

Today
High -- | Low -- °F
--% Chance of Precip.
Yesterday
High -- | Low -- °F
Precip. -- in
7:44 AM 5:30 PM
Waxing Crescent, 29% visible
Pressure 30.29 in
Visibility 10.0 miles
Clouds Scattered Clouds 15000 ft
Mostly Cloudy 25000 ft
Windchill 48 °F
Dew Point 36 °F
Humidity 62%
Rainfall 0.00 in
Snow Depth Not available.
UV 0 out of 12
Pollen .10 out of 12
Air Quality Not available.
Flu Activity Not available.
METAR KTYS 262153Z 08005KT 10SM SCT150 BKN250 09/02 A3028 RMK AO2 SLP257 T00890022

More Conditions Fewer Conditions

Pressure 30.29 in
Visibility 10.0 miles
Clouds Scattered Clouds 15000 ft
Mostly Cloudy 25000 ft
Windchill 48 °F
Dew Point 36 °F
Humidity 62%
Rainfall 0.00 in
Snow Depth Not available.
UV 0 out of 12
Pollen .10 out of 12
Air Quality Not available.
Flu Activity Not available.
METAR KTYS 262153Z 08005KT 10SM SCT150 BKN250 09/02 A3028 RMK AO2 SLP257 T00890022

More Conditions Fewer Conditions

10-Day Weather Forecast

Almanac

Astronomy

Dec. 26, 2014 Rise Set
Actual Time
Civil Twilight
Nautical Twilight
Astronomical Twilight
Moon
Length of Visible Light
Length of Day
Tomorrow will be .
, % of the Moon is Illuminated

Today's Extremes

State Highs State Lows

Community

WunderPhotos

Upload Photos

1,780,731 photos uploaded!

WunderBlogs® & News

Nearby

Air Quality

  Air Quality AQ Index Pollutant
Not available.

Snow Depth

Station Depth Elevation

Earthquake Activity

City Distance Mag. Time & Date
Minimum magnitude displayed is 2.5.

Coastal Water Temperatures

Place Temperature

Nearby Weather Stations